createdAt,value
2023-06-11T00:01:58.487Z,4.50
2023-06-11T00:04:27.171Z,4.80
2023-06-11T00:06:55.084Z,5.32
2023-06-11T00:09:24.360Z,4.80
2023-06-11T00:11:51.586Z,4.70
2023-06-11T00:14:18.791Z,4.80
2023-06-11T00:16:47.009Z,5.43
2023-06-11T00:19:14.316Z,4.60
2023-06-11T00:21:44.748Z,4.63
2023-06-11T00:24:13.343Z,4.75
2023-06-11T00:26:41.435Z,5.20
2023-06-11T00:29:09.088Z,4.97
2023-06-11T00:31:36.418Z,4.95
2023-06-11T00:34:04.123Z,4.90
2023-06-11T00:36:31.684Z,4.55
2023-06-11T00:38:59.400Z,4.60
2023-06-11T00:41:28.012Z,5.40
2023-06-11T00:43:55.622Z,4.88
2023-06-11T00:46:23.411Z,5.03
2023-06-11T00:48:51.743Z,5.07
2023-06-11T00:51:19.525Z,5.13
2023-06-11T00:53:46.702Z,5.85
2023-06-11T00:56:18.417Z,5.55
2023-06-11T00:58:46.773Z,4.93
2023-06-11T01:01:18.346Z,4.75
2023-06-11T01:03:45.721Z,4.82
2023-06-11T01:06:18.243Z,5.28
2023-06-11T01:08:48.408Z,5.47
2023-06-11T01:11:25.253Z,5.57
2023-06-11T01:13:56.703Z,5.43
2023-06-11T01:16:39.354Z,5.07
2023-06-11T01:19:32.656Z,4.97
2023-06-11T01:22:02.129Z,5.43
2023-06-11T01:24:41.264Z,5.10
2023-06-11T01:27:19.830Z,5.50
2023-06-11T01:29:50.246Z,5.55
2023-06-11T01:32:19.769Z,5.93
2023-06-11T01:34:47.273Z,5.85
2023-06-11T01:37:18.961Z,6.18
2023-06-11T01:39:50.289Z,5.82
2023-06-11T01:42:29.306Z,5.65
2023-06-11T01:44:56.680Z,5.80
2023-06-11T01:47:24.026Z,5.93
2023-06-11T01:49:52.369Z,6.03
2023-06-11T01:52:19.723Z,5.95
2023-06-11T01:54:47.182Z,5.40
2023-06-11T01:57:15.756Z,6.32
2023-06-11T01:59:43.109Z,6.03
2023-06-11T02:02:10.472Z,5.88
2023-06-11T02:04:37.625Z,6.43
2023-06-11T02:07:05.127Z,7.00
2023-06-11T02:09:33.450Z,6.45
2023-06-11T02:12:00.648Z,5.65
2023-06-11T02:14:27.947Z,6.30
2023-06-11T02:16:55.200Z,6.78
2023-06-11T02:19:22.582Z,6.60
2023-06-11T02:21:49.800Z,7.03
2023-06-11T02:24:17.072Z,7.30
2023-06-11T02:26:44.367Z,6.78
2023-06-11T02:29:11.691Z,6.22
2023-06-11T02:31:39.000Z,6.30
2023-06-11T02:34:06.195Z,6.60
2023-06-11T02:36:34.424Z,6.55
2023-06-11T02:39:01.640Z,6.68
2023-06-11T02:41:28.960Z,6.97
2023-06-11T02:43:56.777Z,6.75
2023-06-11T02:46:24.094Z,7.07
2023-06-11T02:48:51.330Z,6.68
2023-06-11T02:51:18.635Z,6.82
2023-06-11T02:53:46.127Z,7.03
2023-06-11T02:56:13.356Z,7.10
2023-06-11T02:58:40.582Z,7.38
2023-06-11T03:01:07.912Z,6.93
2023-06-11T03:03:35.109Z,7.65
2023-06-11T03:06:02.992Z,7.72
2023-06-11T03:08:31.258Z,7.85
2023-06-11T03:10:58.978Z,8.10
2023-06-11T03:13:26.353Z,7.82
2023-06-11T03:15:56.323Z,8.32
2023-06-11T03:18:24.550Z,7.47
2023-06-11T03:20:51.968Z,8.75
2023-06-11T03:23:19.246Z,7.70
2023-06-11T03:25:47.237Z,8.27
2023-06-11T03:28:17.960Z,8.55
2023-06-11T03:30:45.187Z,8.75
2023-06-11T03:33:12.640Z,8.70
2023-06-11T03:35:40.402Z,8.80
2023-06-11T03:38:17.000Z,8.73
2023-06-11T03:40:44.357Z,8.20
2023-06-11T03:43:11.680Z,8.13
2023-06-11T03:45:41.129Z,8.23
2023-06-11T03:48:09.359Z,8.43
2023-06-11T03:50:36.708Z,8.70
2023-06-11T03:53:04.029Z,8.10
2023-06-11T03:55:31.216Z,8.80
2023-06-11T03:57:58.605Z,9.00
2023-06-11T04:00:27.663Z,9.65
2023-06-11T04:02:58.612Z,9.15
2023-06-11T04:05:27.930Z,8.60
2023-06-11T04:07:57.425Z,8.73
2023-06-11T04:10:24.941Z,8.38
2023-06-11T04:12:52.138Z,8.68
2023-06-11T04:15:19.484Z,9.15
2023-06-11T04:17:47.588Z,8.95
2023-06-11T04:20:14.846Z,8.35
2023-06-11T04:22:42.378Z,9.23
2023-06-11T04:25:10.170Z,8.57
2023-06-11T04:27:37.770Z,8.43
2023-06-11T04:30:08.226Z,8.68
2023-06-11T04:32:38.071Z,9.05
2023-06-11T04:35:06.634Z,8.77
2023-06-11T04:37:41.129Z,8.20
2023-06-11T04:40:22.331Z,8.60
2023-06-11T04:42:50.543Z,9.57
2023-06-11T04:45:20.341Z,9.43
2023-06-11T04:47:48.695Z,8.30
2023-06-11T04:50:21.756Z,8.90
2023-06-11T04:52:53.182Z,9.48
2023-06-11T04:55:25.937Z,9.15
2023-06-11T04:57:55.675Z,8.90
2023-06-11T05:00:24.065Z,8.73
2023-06-11T05:02:53.025Z,8.55
2023-06-11T05:05:20.629Z,9.13
2023-06-11T05:07:47.970Z,8.63
2023-06-11T05:10:16.648Z,8.15
2023-06-11T05:12:44.142Z,8.40
2023-06-11T05:15:12.597Z,8.30
2023-06-11T05:17:40.631Z,8.75
2023-06-11T05:20:09.288Z,9.15
2023-06-11T05:22:38.006Z,8.23
2023-06-11T05:25:05.477Z,8.75
2023-06-11T05:27:34.551Z,8.27
2023-06-11T05:30:04.056Z,8.45
2023-06-11T05:32:32.783Z,8.05
2023-06-11T05:35:02.557Z,8.10
2023-06-11T05:37:30.110Z,8.52
2023-06-11T05:39:58.493Z,8.35
2023-06-11T05:42:25.796Z,8.30
2023-06-11T05:44:53.470Z,9.00
2023-06-11T05:47:21.402Z,8.68
2023-06-11T05:49:50.587Z,8.50
2023-06-11T05:52:18.145Z,8.52
2023-06-11T05:54:45.528Z,8.23
2023-06-11T05:57:21.155Z,8.98
2023-06-11T05:59:49.307Z,7.93
2023-06-11T06:02:17.922Z,8.18
2023-06-11T06:04:49.489Z,9.00
2023-06-11T06:07:17.513Z,9.60
2023-06-11T06:09:45.561Z,8.40
2023-06-11T06:12:12.994Z,8.75
2023-06-11T06:14:40.440Z,9.35
2023-06-11T06:17:07.999Z,8.48
2023-06-11T06:19:38.960Z,8.48
2023-06-11T06:22:06.385Z,9.60
2023-06-11T06:24:33.608Z,9.13
2023-06-11T06:27:00.899Z,8.85
2023-06-11T06:29:34.157Z,7.53
2023-06-11T06:32:01.977Z,7.88
2023-06-11T06:34:30.164Z,7.25
2023-06-11T06:36:57.342Z,7.82
2023-06-11T06:39:25.500Z,8.10
2023-06-11T06:41:52.932Z,7.72
2023-06-11T06:44:23.780Z,7.50
2023-06-11T06:46:54.633Z,8.02
2023-06-11T06:51:51.173Z,7.03
2023-06-11T06:54:18.644Z,6.97
2023-06-11T06:56:46.125Z,7.57
2023-06-11T06:59:13.394Z,7.78
2023-06-11T07:01:41.119Z,7.57
2023-06-11T07:04:09.672Z,7.93
2023-06-11T07:06:37.845Z,7.07
2023-06-11T07:09:06.502Z,7.55
2023-06-11T07:11:34.326Z,7.20
2023-06-11T07:14:01.726Z,7.30
2023-06-11T07:16:29.820Z,7.45
2023-06-11T07:19:01.307Z,7.72
2023-06-11T07:21:29.468Z,7.03
2023-06-11T07:24:00.049Z,7.22
2023-06-11T07:26:27.946Z,7.55
2023-06-11T07:28:56.589Z,7.10
2023-06-11T07:31:24.012Z,6.55
2023-06-11T07:33:51.415Z,6.68
2023-06-11T07:36:19.295Z,6.30
2023-06-11T07:38:47.467Z,6.60
2023-06-11T07:41:16.676Z,6.18
2023-06-11T07:43:44.039Z,6.32
2023-06-11T07:46:16.616Z,6.70
2023-06-11T07:48:46.011Z,6.88
2023-06-11T07:51:18.328Z,6.97
2023-06-11T07:53:48.307Z,7.05
2023-06-11T07:56:15.569Z,6.93
2023-06-11T07:58:42.753Z,6.47
2023-06-11T08:01:10.164Z,7.15
2023-06-11T08:03:37.396Z,6.32
2023-06-11T08:06:04.804Z,6.88
2023-06-11T08:08:32.289Z,6.93
2023-06-11T08:10:59.542Z,7.60
2023-06-11T08:13:26.888Z,6.88
2023-06-11T08:15:54.650Z,7.10
2023-06-11T08:18:22.006Z,6.20
2023-06-11T08:20:49.409Z,6.93
2023-06-11T08:23:16.592Z,6.75
2023-06-11T08:25:44.399Z,6.53
2023-06-11T08:28:11.627Z,6.90
2023-06-11T08:30:38.878Z,6.88
2023-06-11T08:33:06.203Z,7.35
2023-06-11T08:35:33.615Z,7.05
2023-06-11T08:38:00.895Z,7.05
2023-06-11T08:40:28.796Z,6.82
2023-06-11T08:42:56.025Z,6.88
2023-06-11T08:45:23.371Z,6.20
2023-06-11T08:47:53.495Z,6.65
2023-06-11T08:50:24.183Z,6.43
2023-06-11T08:52:52.822Z,6.63
2023-06-11T08:55:20.116Z,7.00
2023-06-11T08:57:48.051Z,6.10
2023-06-11T09:00:15.574Z,6.60
2023-06-11T09:02:43.115Z,6.68
2023-06-11T09:05:10.730Z,6.70
2023-06-11T09:07:37.914Z,6.22
2023-06-11T09:10:10.197Z,6.35
2023-06-11T09:12:38.091Z,6.78
2023-06-11T09:15:06.665Z,6.40
2023-06-11T09:17:44.715Z,6.57
2023-06-11T09:20:13.811Z,6.40
2023-06-11T09:22:43.384Z,6.00
2023-06-11T09:25:17.626Z,6.13
2023-06-11T09:27:48.794Z,6.32
2023-06-11T09:30:18.212Z,6.00
2023-06-11T09:32:47.523Z,6.35
2023-06-11T09:35:18.319Z,7.00
2023-06-11T09:37:56.387Z,6.85
2023-06-11T09:40:26.651Z,6.50
2023-06-11T09:42:53.988Z,6.78
2023-06-11T09:45:22.207Z,6.13
2023-06-11T09:47:52.342Z,5.63
2023-06-11T09:50:22.635Z,5.45
2023-06-11T09:52:50.129Z,5.82
2023-06-11T09:55:17.395Z,5.65
2023-06-11T09:57:44.422Z,5.65
2023-06-11T10:00:13.506Z,5.95
2023-06-11T10:02:42.384Z,5.80
2023-06-11T10:05:11.203Z,5.90
2023-06-11T10:07:49.494Z,5.72
2023-06-11T10:10:21.281Z,5.28
2023-06-11T10:12:52.243Z,5.75
2023-06-11T10:15:22.099Z,6.03
2023-06-11T10:17:50.807Z,5.38
2023-06-11T10:20:29.046Z,6.13
2023-06-11T10:23:07.613Z,5.50
2023-06-11T10:25:42.150Z,5.60
2023-06-11T10:28:12.810Z,6.25
2023-06-11T10:30:40.067Z,5.78
2023-06-11T10:33:07.291Z,5.68
2023-06-11T10:35:34.649Z,6.13
2023-06-11T10:38:07.020Z,5.28
2023-06-11T10:40:35.775Z,5.60
2023-06-11T10:43:06.627Z,5.57
2023-06-11T10:45:39.627Z,5.57
2023-06-11T10:48:06.912Z,5.38
2023-06-11T10:50:35.074Z,5.35
2023-06-11T10:53:14.330Z,4.90
2023-06-11T10:55:45.431Z,5.30
2023-06-11T10:58:23.767Z,5.45
2023-06-11T11:00:53.528Z,5.60
2023-06-11T11:03:23.001Z,5.28
2023-06-11T11:05:55.345Z,5.53
2023-06-11T11:08:25.754Z,5.55
2023-06-11T11:10:57.920Z,4.97
2023-06-11T11:13:24.893Z,5.30
2023-06-11T11:15:52.305Z,5.38
2023-06-11T11:18:19.675Z,5.88
2023-06-11T11:20:47.091Z,5.78
2023-06-11T11:23:14.394Z,5.10
2023-06-11T11:25:43.283Z,5.47
2023-06-11T11:28:12.797Z,5.55
2023-06-11T11:30:40.930Z,5.50
2023-06-11T11:33:08.483Z,5.22
2023-06-11T11:35:46.842Z,5.47
2023-06-11T11:40:40.956Z,5.35
2023-06-11T11:43:14.969Z,5.18
2023-06-11T11:45:47.764Z,4.82
2023-06-11T11:48:16.813Z,4.20
2023-06-11T11:50:46.362Z,4.32
2023-06-11T11:53:19.903Z,3.83
2023-06-11T11:58:18.069Z,4.20
2023-06-11T12:00:49.516Z,4.20
2023-06-11T12:03:20.082Z,4.43
2023-06-11T12:06:07.062Z,4.20
2023-06-11T12:08:35.706Z,4.60
2023-06-11T12:11:08.343Z,4.57
2023-06-11T12:13:36.331Z,4.68
2023-06-11T12:16:05.226Z,4.40
2023-06-11T12:18:33.795Z,4.75
2023-06-11T12:21:01.099Z,4.30
2023-06-11T12:23:28.258Z,4.70
2023-06-11T12:25:55.537Z,5.00
2023-06-11T12:28:22.706Z,4.65
2023-06-11T12:30:50.104Z,4.60
2023-06-11T12:33:17.562Z,4.50
2023-06-11T12:35:45.250Z,3.90
2023-06-11T12:38:12.955Z,4.10
2023-06-11T12:40:40.278Z,4.13
2023-06-11T12:43:07.578Z,3.80
2023-06-11T12:45:38.417Z,4.05
2023-06-11T12:48:06.432Z,3.95
2023-06-11T12:50:33.835Z,4.28
2023-06-11T12:53:01.696Z,4.30
2023-06-11T12:55:29.021Z,4.10
2023-06-11T12:57:56.263Z,4.40
2023-06-11T13:00:25.662Z,3.80
2023-06-11T13:02:52.465Z,3.95
2023-06-11T13:05:22.365Z,4.10
2023-06-11T13:07:49.898Z,3.88
2023-06-11T13:10:17.000Z,3.67
2023-06-11T13:12:44.281Z,3.97
2023-06-11T13:15:11.691Z,3.72
2023-06-11T13:17:38.885Z,4.00
2023-06-11T13:20:06.304Z,4.05
2023-06-11T13:22:33.013Z,4.13
2023-06-11T13:25:00.225Z,4.22
2023-06-11T13:27:27.579Z,4.25
2023-06-11T13:29:54.751Z,3.70
2023-06-11T13:32:23.406Z,4.03
2023-06-11T13:34:50.725Z,4.13
2023-06-11T13:37:17.558Z,4.20
2023-06-11T13:39:44.771Z,4.35
2023-06-11T13:42:11.981Z,3.88
2023-06-11T13:44:39.440Z,3.95
2023-06-11T13:47:06.719Z,4.28
2023-06-11T13:49:33.992Z,4.22
2023-06-11T13:52:01.929Z,4.20
2023-06-11T13:54:29.474Z,4.25
2023-06-11T13:56:56.585Z,4.30
2023-06-11T13:59:23.796Z,4.00
2023-06-11T14:01:52.854Z,4.03
2023-06-11T14:04:19.574Z,4.13
2023-06-11T14:06:46.858Z,4.53
2023-06-11T14:09:14.154Z,4.25
2023-06-11T14:11:41.368Z,3.80
2023-06-11T14:14:10.573Z,3.78
2023-06-11T14:16:37.864Z,3.95
2023-06-11T14:19:05.095Z,4.15
2023-06-11T14:21:32.381Z,4.05
2023-06-11T14:23:59.650Z,4.32
2023-06-11T14:26:26.891Z,4.22
2023-06-11T14:28:54.129Z,3.72
2023-06-11T14:31:22.554Z,4.20
2023-06-11T14:33:49.918Z,4.00
2023-06-11T14:36:17.222Z,3.70
2023-06-11T14:38:44.420Z,3.97
2023-06-11T14:41:11.179Z,4.43
2023-06-11T14:43:38.623Z,4.13
2023-06-11T14:46:06.152Z,4.30
2023-06-11T14:48:33.358Z,4.80
2023-06-11T14:51:05.423Z,4.10
2023-06-11T14:53:32.958Z,3.97
2023-06-11T14:56:00.245Z,4.45
2023-06-11T14:58:27.018Z,4.15
2023-06-11T15:00:54.153Z,4.50
2023-06-11T15:03:21.449Z,4.10
2023-06-11T15:05:48.350Z,4.40
2023-06-11T15:08:15.679Z,4.63
2023-06-11T15:10:42.454Z,4.55
2023-06-11T15:13:09.641Z,4.32
2023-06-11T15:15:36.885Z,4.40
2023-06-11T15:18:06.208Z,4.03
2023-06-11T15:20:33.441Z,4.60
2023-06-11T15:23:00.687Z,4.60
2023-06-11T15:25:27.955Z,4.75
2023-06-11T15:27:55.343Z,4.53
2023-06-11T15:30:22.517Z,5.07
2023-06-11T15:32:49.750Z,4.43
2023-06-11T15:35:17.104Z,4.20
2023-06-11T15:37:43.921Z,4.10
2023-06-11T15:40:11.452Z,4.97
2023-06-11T15:42:40.090Z,4.47
2023-06-11T15:45:09.808Z,4.97
2023-06-11T15:47:37.452Z,4.45
2023-06-11T15:50:05.017Z,3.85
2023-06-11T15:52:32.268Z,4.57
2023-06-11T15:54:59.538Z,4.40
2023-06-11T15:57:26.812Z,4.43
2023-06-11T15:59:53.569Z,4.20
2023-06-11T16:02:20.823Z,4.40
2023-06-11T16:04:49.344Z,4.32
2023-06-11T16:07:16.660Z,4.50
2023-06-11T16:09:43.786Z,4.68
2023-06-11T16:12:11.115Z,4.47
2023-06-11T16:14:38.373Z,5.00
2023-06-11T16:17:05.886Z,4.95
2023-06-11T16:19:33.359Z,4.68
2023-06-11T16:22:00.763Z,4.75
2023-06-11T16:24:28.049Z,4.35
2023-06-11T16:26:55.384Z,4.72
2023-06-11T16:29:22.665Z,4.65
2023-06-11T16:31:49.875Z,4.55
2023-06-11T16:34:17.229Z,4.45
2023-06-11T16:36:44.464Z,4.97
2023-06-11T16:39:26.415Z,5.03
2023-06-11T16:41:54.639Z,4.93
2023-06-11T16:44:21.975Z,4.93
2023-06-11T16:46:49.313Z,4.93
2023-06-11T16:49:17.994Z,4.75
2023-06-11T16:51:45.630Z,4.80
2023-06-11T16:54:13.805Z,4.95
2023-06-11T16:56:42.995Z,5.05
2023-06-11T16:59:10.298Z,5.50
2023-06-11T17:01:37.564Z,5.15
2023-06-11T17:04:05.000Z,5.03
2023-06-11T17:06:32.302Z,4.85
2023-06-11T17:08:59.446Z,4.63
2023-06-11T17:11:27.812Z,4.93
2023-06-11T17:13:55.139Z,4.85
2023-06-11T17:16:22.448Z,5.18
2023-06-11T17:18:49.724Z,5.50
2023-06-11T17:21:16.907Z,4.88
2023-06-11T17:23:44.173Z,5.45
2023-06-11T17:26:11.429Z,4.93
2023-06-11T17:28:38.697Z,5.60
2023-06-11T17:31:06.262Z,5.38
2023-06-11T17:33:33.478Z,5.53
2023-06-11T17:36:00.765Z,5.10
2023-06-11T17:38:27.979Z,6.18
2023-06-11T17:40:55.197Z,5.43
2023-06-11T17:43:22.527Z,5.82
2023-06-11T17:45:50.081Z,6.00
2023-06-11T17:48:18.571Z,6.22
2023-06-11T17:50:45.871Z,5.97
2023-06-11T17:53:13.193Z,6.72
2023-06-11T17:55:40.437Z,5.93
2023-06-11T17:58:07.756Z,6.00
2023-06-11T18:00:34.973Z,6.03
2023-06-11T18:03:02.147Z,5.93
2023-06-11T18:05:29.587Z,6.35
2023-06-11T18:07:56.857Z,6.40
2023-06-11T18:10:24.082Z,6.32
2023-06-11T18:12:51.475Z,6.28
2023-06-11T18:15:32.295Z,5.95
2023-06-11T18:18:01.661Z,6.13
2023-06-11T18:20:30.035Z,6.18
2023-06-11T18:22:57.689Z,6.13
2023-06-11T18:25:26.476Z,5.75
2023-06-11T18:27:53.934Z,6.28
2023-06-11T18:30:22.413Z,6.40
2023-06-11T18:32:50.428Z,6.13
2023-06-11T18:35:20.824Z,5.90
2023-06-11T18:37:48.070Z,6.10
2023-06-11T18:40:16.439Z,5.97
2023-06-11T18:42:43.852Z,5.85
2023-06-11T18:45:11.049Z,5.80
2023-06-11T18:47:40.160Z,5.78
2023-06-11T18:50:10.441Z,5.93
2023-06-11T18:52:38.242Z,5.55
2023-06-11T18:55:05.694Z,5.60
2023-06-11T18:57:33.020Z,5.80
2023-06-11T19:00:00.588Z,6.10
2023-06-11T19:02:28.148Z,5.80
2023-06-11T19:04:55.594Z,5.75
2023-06-11T19:07:23.886Z,5.80
2023-06-11T19:09:51.064Z,5.63
2023-06-11T19:12:18.467Z,5.38
2023-06-11T19:14:45.819Z,5.25
2023-06-11T19:17:13.172Z,5.43
2023-06-11T19:19:40.807Z,5.82
2023-06-11T19:22:08.303Z,6.28
2023-06-11T19:24:35.875Z,5.90
2023-06-11T19:27:03.082Z,5.32
2023-06-11T19:29:32.391Z,5.20
2023-06-11T19:31:59.658Z,5.90
2023-06-11T19:34:26.949Z,6.60
2023-06-11T19:36:54.317Z,5.22
2023-06-11T19:39:21.444Z,5.57
2023-06-11T19:41:48.663Z,5.68
2023-06-11T19:44:15.868Z,5.85
2023-06-11T19:46:43.078Z,5.60
2023-06-11T19:49:10.588Z,5.63
2023-06-11T19:51:39.673Z,5.05
2023-06-11T19:54:06.952Z,5.07
2023-06-11T19:56:34.198Z,5.25
2023-06-11T19:59:02.477Z,5.00
2023-06-11T20:01:29.746Z,5.13
2023-06-11T20:03:56.971Z,4.65
2023-06-11T20:06:24.218Z,5.28
2023-06-11T20:08:51.522Z,5.78
2023-06-11T20:11:19.203Z,4.57
2023-06-11T20:13:46.836Z,4.60
2023-06-11T20:16:14.144Z,5.10
2023-06-11T20:18:41.762Z,4.88
2023-06-11T20:21:09.427Z,4.65
2023-06-11T20:23:36.975Z,4.90
2023-06-11T20:26:05.005Z,5.05
2023-06-11T20:28:32.333Z,5.00
2023-06-11T20:31:04.293Z,5.10
2023-06-11T20:33:32.403Z,5.10
2023-06-11T20:35:59.592Z,4.72
2023-06-11T20:38:26.877Z,4.72
2023-06-11T20:40:54.552Z,5.28
2023-06-11T20:43:21.823Z,5.47
2023-06-11T20:45:57.820Z,4.97
2023-06-11T20:48:26.362Z,4.95
2023-06-11T20:50:53.903Z,4.90
2023-06-11T20:53:33.223Z,4.90
2023-06-11T20:56:01.853Z,4.75
2023-06-11T20:58:29.072Z,4.82
2023-06-11T21:00:56.348Z,4.78
2023-06-11T21:03:23.771Z,4.55
2023-06-11T21:05:51.400Z,5.03
2023-06-11T21:08:19.302Z,5.45
2023-06-11T21:10:46.643Z,4.38
2023-06-11T21:13:13.976Z,4.63
2023-06-11T21:15:41.374Z,4.80
2023-06-11T21:18:08.654Z,4.68
2023-06-11T21:20:37.465Z,5.40
2023-06-11T21:23:04.746Z,4.60
2023-06-11T21:25:32.012Z,5.18
2023-06-11T21:27:59.396Z,4.72
2023-06-11T21:30:26.520Z,5.18
2023-06-11T21:32:53.817Z,4.60
2023-06-11T21:35:21.131Z,4.82
2023-06-11T21:37:48.348Z,4.80
2023-06-11T21:40:15.688Z,5.00
2023-06-11T21:42:43.173Z,4.88
2023-06-11T21:45:10.566Z,4.65
2023-06-11T21:47:37.878Z,5.00
2023-06-11T21:50:06.696Z,4.50
2023-06-11T21:52:34.405Z,4.40
2023-06-11T21:55:02.020Z,4.38
2023-06-11T21:57:29.487Z,4.60
2023-06-11T21:59:56.638Z,4.72
2023-06-11T22:02:23.895Z,4.65
2023-06-11T22:04:53.877Z,4.70
2023-06-11T22:07:22.366Z,5.07
2023-06-11T22:09:49.545Z,4.70
2023-06-11T22:12:17.660Z,4.72
2023-06-11T22:14:44.921Z,4.53
2023-06-11T22:17:12.226Z,4.50
2023-06-11T22:19:39.756Z,4.25
2023-06-11T22:22:11.590Z,4.00
2023-06-11T22:24:39.530Z,4.55
2023-06-11T22:27:13.139Z,4.57
2023-06-11T22:29:41.108Z,4.93
2023-06-11T22:32:08.748Z,4.60
2023-06-11T22:34:35.986Z,4.40
2023-06-11T22:37:03.239Z,4.32
2023-06-11T22:39:30.569Z,4.45
2023-06-11T22:41:57.732Z,3.75
2023-06-11T22:44:25.001Z,4.18
2023-06-11T22:46:52.546Z,4.38
2023-06-11T22:49:19.780Z,4.30
2023-06-11T22:51:48.252Z,4.07
2023-06-11T22:54:15.515Z,4.20
2023-06-11T22:56:42.812Z,4.30
2023-06-11T22:59:11.100Z,4.50
2023-06-11T23:01:38.875Z,4.30
2023-06-11T23:04:06.206Z,3.85
2023-06-11T23:06:33.621Z,3.95
2023-06-11T23:09:00.925Z,4.03
2023-06-11T23:11:28.073Z,4.38
2023-06-11T23:13:55.291Z,4.00
2023-06-11T23:16:22.750Z,4.18
2023-06-11T23:18:52.606Z,4.30
2023-06-11T23:21:21.174Z,3.90
2023-06-11T23:23:49.057Z,3.85
2023-06-11T23:26:17.174Z,4.07
2023-06-11T23:28:44.366Z,4.20
2023-06-11T23:31:11.917Z,3.95
2023-06-11T23:33:39.691Z,4.00
2023-06-11T23:36:07.398Z,4.57
2023-06-11T23:38:34.602Z,3.80
2023-06-11T23:41:01.734Z,4.15
2023-06-11T23:43:28.979Z,4.15
2023-06-11T23:45:56.167Z,4.07
2023-06-11T23:48:23.429Z,4.03
2023-06-11T23:50:50.594Z,3.85
2023-06-11T23:53:17.791Z,4.07
2023-06-11T23:55:44.978Z,3.88
2023-06-11T23:58:17.889Z,4.22
